createdAt,value
2017-09-16T00:02:19.604Z,11.30
2017-09-16T00:04:47.123Z,11.30
2017-09-16T00:07:14.588Z,11.40
2017-09-16T00:09:42.890Z,11.30
2017-09-16T00:12:10.295Z,11.20
2017-09-16T00:14:37.729Z,11.00
2017-09-16T00:17:05.184Z,10.90
2017-09-16T00:19:32.646Z,10.80
2017-09-16T00:22:00.120Z,10.80
2017-09-16T00:24:27.556Z,10.80
2017-09-16T00:26:54.975Z,10.80
2017-09-16T00:29:23.186Z,10.70
2017-09-16T00:31:50.600Z,10.70
2017-09-16T00:34:18.800Z,10.60
2017-09-16T00:36:46.212Z,10.50
2017-09-16T00:39:15.153Z,10.50
2017-09-16T00:41:42.562Z,10.50
2017-09-16T00:44:09.988Z,10.40
2017-09-16T00:46:37.419Z,10.50
2017-09-16T00:49:04.832Z,10.50
2017-09-16T00:51:33.023Z,10.30
2017-09-16T00:54:01.213Z,10.30
2017-09-16T00:56:28.632Z,10.30
2017-09-16T00:58:56.059Z,10.30
2017-09-16T01:01:23.542Z,10.30
2017-09-16T01:03:50.959Z,10.30
2017-09-16T01:06:18.380Z,10.30
2017-09-16T01:08:46.591Z,10.30
2017-09-16T01:11:14.023Z,10.30
2017-09-16T01:13:41.500Z,10.40
2017-09-16T01:16:08.931Z,10.40
2017-09-16T01:18:36.420Z,10.40
2017-09-16T01:21:03.870Z,10.40
2017-09-16T01:23:31.283Z,10.40
2017-09-16T01:25:59.470Z,10.50
2017-09-16T01:28:26.891Z,10.40
2017-09-16T01:30:55.081Z,10.50
2017-09-16T01:33:22.495Z,10.40
2017-09-16T01:35:49.920Z,10.50
2017-09-16T01:38:17.395Z,10.40
2017-09-16T01:40:44.958Z,10.20
2017-09-16T01:43:12.385Z,10.20
2017-09-16T01:45:40.591Z,10.20
2017-09-16T01:48:08.029Z,10.10
2017-09-16T01:50:35.448Z,10.20
2017-09-16T01:53:02.859Z,10.20
2017-09-16T01:55:30.310Z,10.10
2017-09-16T01:57:57.781Z,10.20
2017-09-16T02:00:26.220Z,10.20
2017-09-16T02:02:54.423Z,10.20
2017-09-16T02:05:21.848Z,10.20
2017-09-16T02:07:50.040Z,10.30
2017-09-16T02:10:17.480Z,10.30
2017-09-16T02:12:46.483Z,10.20
2017-09-16T02:15:13.903Z,10.20
2017-09-16T02:17:41.423Z,10.10
2017-09-16T02:20:08.851Z,10.10
2017-09-16T02:22:36.281Z,10.10
2017-09-16T02:25:04.464Z,9.90
2017-09-16T02:27:32.648Z,9.90
2017-09-16T02:30:00.824Z,9.90
2017-09-16T02:32:28.244Z,9.90
2017-09-16T02:34:55.659Z,9.90
2017-09-16T02:37:23.633Z,9.90
2017-09-16T02:39:51.048Z,9.90
2017-09-16T02:42:19.236Z,9.80
2017-09-16T02:44:46.647Z,9.80
2017-09-16T02:47:14.059Z,9.90
2017-09-16T02:49:41.475Z,9.90
2017-09-16T02:52:08.909Z,9.90
2017-09-16T02:54:36.344Z,9.90
2017-09-16T02:57:04.147Z,9.90
2017-09-16T02:59:31.562Z,9.90
2017-09-16T03:01:58.978Z,9.90
2017-09-16T03:04:27.606Z,9.90
2017-09-16T03:06:55.255Z,9.90
2017-09-16T03:09:22.673Z,9.80
2017-09-16T03:11:50.858Z,9.80
2017-09-16T03:14:19.277Z,9.80
2017-09-16T03:16:46.688Z,9.80
2017-09-16T03:19:14.879Z,9.70
2017-09-16T03:21:42.296Z,9.70
2017-09-16T03:24:10.531Z,9.80
2017-09-16T03:26:37.947Z,9.80
2017-09-16T03:29:06.255Z,9.80
2017-09-16T03:31:33.716Z,9.80
2017-09-16T03:34:01.137Z,9.70
2017-09-16T03:36:29.315Z,9.80
2017-09-16T03:38:56.743Z,9.80
2017-09-16T03:41:25.665Z,9.70
2017-09-16T03:43:53.146Z,9.70
2017-09-16T03:46:21.216Z,9.70
2017-09-16T03:48:48.630Z,9.70
2017-09-16T03:51:17.015Z,9.70
2017-09-16T03:53:45.918Z,9.70
2017-09-16T03:56:13.350Z,9.70
2017-09-16T03:58:41.527Z,9.60
2017-09-16T04:01:09.711Z,9.60
2017-09-16T04:03:37.886Z,9.50
2017-09-16T04:06:06.059Z,9.40
2017-09-16T04:08:34.240Z,9.30
2017-09-16T04:11:02.136Z,9.30
2017-09-16T04:13:29.903Z,9.30
2017-09-16T04:15:57.359Z,9.30
2017-09-16T04:18:24.776Z,9.20
2017-09-16T04:20:52.963Z,9.10
2017-09-16T04:23:20.371Z,9.10
2017-09-16T04:25:48.578Z,9.10
2017-09-16T04:28:16.759Z,9.00
2017-09-16T04:30:44.179Z,9.00
2017-09-16T04:33:11.600Z,9.00
2017-09-16T04:35:39.155Z,9.00
2017-09-16T04:38:07.444Z,9.00
2017-09-16T04:40:34.887Z,9.00
2017-09-16T04:43:02.311Z,8.90
2017-09-16T04:45:30.526Z,9.00
2017-09-16T04:47:57.935Z,9.00
2017-09-16T04:50:26.152Z,9.10
2017-09-16T04:52:53.560Z,9.00
2017-09-16T04:55:21.319Z,9.00
2017-09-16T04:57:48.744Z,9.10
2017-09-16T05:00:16.160Z,9.00
2017-09-16T05:02:43.583Z,9.10
2017-09-16T05:05:11.097Z,9.00
2017-09-16T05:07:39.295Z,9.10
2017-09-16T05:10:06.718Z,9.20
2017-09-16T05:12:34.126Z,9.20
2017-09-16T05:15:01.552Z,9.20
2017-09-16T05:17:28.972Z,9.20
2017-09-16T05:19:56.455Z,9.20
2017-09-16T05:22:23.904Z,9.20
2017-09-16T05:24:51.319Z,9.30
2017-09-16T05:27:19.507Z,9.30
2017-09-16T05:29:47.092Z,9.30
2017-09-16T05:32:14.559Z,9.20
2017-09-16T05:34:41.978Z,9.30
2017-09-16T05:37:10.168Z,9.30
2017-09-16T05:39:37.588Z,9.30
2017-09-16T05:42:05.775Z,9.30
2017-09-16T05:44:33.958Z,9.20
2017-09-16T05:47:01.390Z,9.20
2017-09-16T05:49:29.406Z,9.20
2017-09-16T05:51:56.818Z,9.30
2017-09-16T05:54:24.998Z,9.30
2017-09-16T05:56:53.217Z,9.30
2017-09-16T05:59:20.626Z,9.30
2017-09-16T06:01:48.854Z,9.30
2017-09-16T06:04:16.270Z,9.30
2017-09-16T06:06:45.191Z,9.40
2017-09-16T06:09:12.612Z,9.40
2017-09-16T06:11:40.802Z,9.40
2017-09-16T06:14:08.218Z,9.40
2017-09-16T06:16:35.636Z,9.50
2017-09-16T06:19:03.051Z,9.50
2017-09-16T06:21:31.235Z,9.50
2017-09-16T06:23:59.383Z,9.50
2017-09-16T06:26:27.568Z,9.60
2017-09-16T06:28:55.760Z,9.60
2017-09-16T06:31:23.170Z,9.60
2017-09-16T06:33:50.587Z,9.60
2017-09-16T06:36:17.999Z,9.70
2017-09-16T06:38:46.190Z,9.80
2017-09-16T06:41:14.397Z,10.00
2017-09-16T06:43:41.835Z,9.90
2017-09-16T06:46:09.262Z,10.00
2017-09-16T06:48:37.487Z,10.10
2017-09-16T06:51:04.899Z,10.10
2017-09-16T06:53:33.091Z,10.30
2017-09-16T06:56:00.516Z,10.20
2017-09-16T06:58:27.935Z,10.30
2017-09-16T07:00:55.354Z,10.40
2017-09-16T07:03:23.671Z,10.50
2017-09-16T07:05:51.095Z,10.50
2017-09-16T07:08:18.560Z,10.60
2017-09-16T07:10:46.030Z,10.70
2017-09-16T07:13:13.459Z,10.80
2017-09-16T07:15:40.944Z,10.80
2017-09-16T07:18:08.359Z,10.90
2017-09-16T07:20:37.095Z,10.90
2017-09-16T07:23:04.519Z,10.90
2017-09-16T07:25:31.947Z,11.00
2017-09-16T07:28:00.147Z,11.10
2017-09-16T07:30:27.613Z,11.10
2017-09-16T07:32:55.389Z,11.10
2017-09-16T07:35:22.815Z,11.20
2017-09-16T07:37:51.004Z,11.30
2017-09-16T07:40:18.443Z,11.30
2017-09-16T07:42:45.942Z,11.30
2017-09-16T07:45:13.461Z,11.40
2017-09-16T07:47:41.632Z,11.50
2017-09-16T07:50:09.840Z,11.60
2017-09-16T07:52:37.614Z,11.50
2017-09-16T07:55:05.075Z,11.60
2017-09-16T07:57:32.491Z,11.70
2017-09-16T07:59:59.944Z,11.70
2017-09-16T08:02:28.840Z,11.90
2017-09-16T08:04:56.280Z,11.90
2017-09-16T08:07:24.516Z,12.10
2017-09-16T08:09:52.908Z,12.10
2017-09-16T08:12:20.339Z,12.10
2017-09-16T08:14:47.759Z,12.20
2017-09-16T08:17:15.242Z,12.30
2017-09-16T08:19:42.672Z,12.30
2017-09-16T08:22:10.858Z,12.50
2017-09-16T08:24:38.284Z,12.50
2017-09-16T08:27:06.495Z,12.50
2017-09-16T08:29:33.931Z,12.50
2017-09-16T08:32:01.351Z,12.60
2017-09-16T08:34:29.543Z,12.80
2017-09-16T08:36:57.723Z,12.80
2017-09-16T08:39:25.915Z,12.90
2017-09-16T08:41:54.319Z,12.90
2017-09-16T08:44:21.907Z,13.00
2017-09-16T08:46:50.092Z,13.20
2017-09-16T08:49:17.510Z,13.20
2017-09-16T08:51:44.935Z,13.20
2017-09-16T08:54:12.417Z,13.20
2017-09-16T08:56:39.840Z,13.20
2017-09-16T08:59:08.014Z,13.40
2017-09-16T09:01:36.248Z,13.50
2017-09-16T09:04:03.771Z,13.40
2017-09-16T09:06:31.232Z,13.40
2017-09-16T09:08:58.647Z,13.40
2017-09-16T09:11:26.847Z,13.60
2017-09-16T09:13:54.262Z,13.60
2017-09-16T09:16:21.686Z,13.70
2017-09-16T09:18:49.108Z,13.80
2017-09-16T09:21:16.589Z,13.90
2017-09-16T09:23:44.465Z,13.90
2017-09-16T09:26:11.882Z,14.00
2017-09-16T09:28:41.035Z,14.00
2017-09-16T09:31:08.607Z,14.00
2017-09-16T09:33:36.118Z,14.20
2017-09-16T09:36:04.176Z,14.40
2017-09-16T09:38:31.593Z,14.50
2017-09-16T09:41:00.547Z,14.60
2017-09-16T09:43:27.991Z,14.60
2017-09-16T09:45:55.465Z,14.70
2017-09-16T09:48:22.883Z,14.80
2017-09-16T09:50:51.075Z,14.70
2017-09-16T09:53:19.079Z,14.70
2017-09-16T09:55:46.500Z,14.70
2017-09-16T09:58:13.927Z,14.80
2017-09-16T10:00:41.335Z,14.70
2017-09-16T10:03:08.743Z,14.70
2017-09-16T10:05:36.951Z,14.90
2017-09-16T10:08:04.363Z,14.90
2017-09-16T10:10:32.642Z,14.70
2017-09-16T10:13:00.831Z,14.90
2017-09-16T10:15:29.328Z,15.10
2017-09-16T10:17:56.759Z,15.10
2017-09-16T10:20:24.936Z,15.20
2017-09-16T10:22:53.140Z,15.10
2017-09-16T10:25:21.510Z,15.10
2017-09-16T10:27:48.935Z,15.10
2017-09-16T10:30:17.118Z,15.10
2017-09-16T10:32:45.309Z,15.30
2017-09-16T10:35:12.784Z,15.30
2017-09-16T10:37:40.428Z,15.40
2017-09-16T10:40:07.850Z,15.50
2017-09-16T10:42:36.795Z,15.80
2017-09-16T10:45:04.247Z,15.80
2017-09-16T10:47:31.751Z,15.80
2017-09-16T10:49:59.939Z,15.60
2017-09-16T10:52:28.120Z,15.80
2017-09-16T10:54:55.621Z,15.70
2017-09-16T10:57:23.061Z,15.90
2017-09-16T10:59:50.520Z,16.00
2017-09-16T11:02:17.944Z,16.30
2017-09-16T11:04:46.114Z,16.10
2017-09-16T11:07:14.324Z,16.20
2017-09-16T11:09:42.241Z,16.20
2017-09-16T11:12:10.446Z,16.60
2017-09-16T11:14:37.870Z,16.50
2017-09-16T11:17:05.331Z,16.60
2017-09-16T11:19:32.748Z,16.90
2017-09-16T11:22:00.192Z,17.00
2017-09-16T11:24:28.495Z,17.10
2017-09-16T11:26:56.743Z,17.00
2017-09-16T11:29:24.151Z,16.80
2017-09-16T11:31:52.331Z,16.60
2017-09-16T11:34:20.517Z,16.70
2017-09-16T11:36:48.723Z,16.90
2017-09-16T11:39:16.127Z,16.90
2017-09-16T11:41:44.325Z,17.90
2017-09-16T11:44:11.736Z,17.90
2017-09-16T11:46:39.156Z,18.20
2017-09-16T11:49:06.615Z,19.00
2017-09-16T11:51:34.811Z,19.40
2017-09-16T11:54:02.224Z,19.70
2017-09-16T11:56:29.639Z,20.20
2017-09-16T11:58:57.051Z,20.50
2017-09-16T12:01:24.513Z,20.70
2017-09-16T12:03:51.928Z,20.30
2017-09-16T12:06:20.783Z,21.50
2017-09-16T12:08:48.211Z,21.50
2017-09-16T12:11:15.675Z,21.10
2017-09-16T12:13:43.088Z,21.10
2017-09-16T12:16:11.288Z,23.10
2017-09-16T12:18:38.695Z,23.10
2017-09-16T12:21:06.151Z,24.20
2017-09-16T12:23:33.606Z,23.40
2017-09-16T12:26:01.085Z,22.40
2017-09-16T12:28:28.544Z,22.30
2017-09-16T12:30:56.023Z,22.20
2017-09-16T12:33:23.502Z,23.60
2017-09-16T12:35:50.947Z,24.20
2017-09-16T12:38:18.406Z,24.20
2017-09-16T12:40:45.829Z,23.30
2017-09-16T12:43:13.332Z,21.90
2017-09-16T12:45:40.755Z,20.40
2017-09-16T12:48:08.939Z,19.10
2017-09-16T12:50:36.437Z,19.10
2017-09-16T12:53:03.831Z,19.60
2017-09-16T12:55:32.059Z,22.50
2017-09-16T12:57:59.483Z,22.50
2017-09-16T13:00:28.560Z,22.20
2017-09-16T13:02:56.741Z,21.80
2017-09-16T13:05:24.217Z,21.80
2017-09-16T13:07:51.912Z,21.60
2017-09-16T13:10:19.345Z,21.20
2017-09-16T13:12:46.812Z,21.00
2017-09-16T13:15:14.237Z,21.40
2017-09-16T13:17:41.785Z,22.00
2017-09-16T13:20:09.196Z,22.10
2017-09-16T13:22:36.647Z,22.30
2017-09-16T13:25:04.111Z,21.90
2017-09-16T13:27:31.543Z,20.40
2017-09-16T13:29:58.989Z,19.90
2017-09-16T13:32:26.412Z,20.00
2017-09-16T13:34:54.591Z,19.70
2017-09-16T13:37:22.775Z,18.50
2017-09-16T13:39:50.248Z,18.50
2017-09-16T13:42:17.667Z,18.30
2017-09-16T13:44:45.880Z,18.30
2017-09-16T13:47:13.859Z,18.30
2017-09-16T13:49:41.285Z,18.90
2017-09-16T13:52:09.477Z,20.40
2017-09-16T13:54:36.892Z,20.40
2017-09-16T13:57:05.071Z,20.00
2017-09-16T13:59:33.258Z,20.80
2017-09-16T14:02:01.436Z,22.60
2017-09-16T14:04:28.850Z,22.60
2017-09-16T14:06:57.771Z,23.40
2017-09-16T14:09:25.955Z,23.90
2017-09-16T14:11:54.313Z,23.90
2017-09-16T14:14:22.487Z,23.40
2017-09-16T14:16:50.664Z,23.60
2017-09-16T14:19:18.867Z,23.00
2017-09-16T14:21:46.275Z,23.00
2017-09-16T14:24:13.692Z,22.80
2017-09-16T14:26:41.150Z,21.80
2017-09-16T14:29:09.216Z,22.10
2017-09-16T14:31:36.628Z,23.00
2017-09-16T14:34:04.812Z,25.10
2017-09-16T14:36:33.007Z,26.20
2017-09-16T14:39:00.411Z,26.10
2017-09-16T14:41:29.348Z,26.40
2017-09-16T14:43:56.751Z,26.40
2017-09-16T14:46:24.291Z,26.00
2017-09-16T14:48:51.839Z,26.30
2017-09-16T14:51:19.231Z,27.40
2017-09-16T14:53:46.655Z,27.50
2017-09-16T14:56:14.075Z,25.70
2017-09-16T14:58:42.284Z,25.80
2017-09-16T15:01:09.701Z,25.80
2017-09-16T15:03:37.879Z,26.10
2017-09-16T15:06:05.308Z,26.10
2017-09-16T15:08:34.227Z,25.90
2017-09-16T15:11:01.664Z,25.90
2017-09-16T15:13:29.837Z,26.50
2017-09-16T15:15:57.276Z,26.50
2017-09-16T15:18:24.690Z,26.50
2017-09-16T15:20:52.862Z,25.70
2017-09-16T15:23:20.281Z,25.60
2017-09-16T15:25:48.460Z,24.70
2017-09-16T15:28:16.652Z,24.10
2017-09-16T15:30:44.523Z,24.10
2017-09-16T15:33:11.952Z,24.50
2017-09-16T15:35:39.359Z,25.30
2017-09-16T15:38:06.807Z,24.20
2017-09-16T15:40:34.223Z,24.10
2017-09-16T15:43:02.443Z,24.10
2017-09-16T15:45:29.870Z,24.20
2017-09-16T15:47:58.043Z,23.60
2017-09-16T15:50:25.528Z,23.60
2017-09-16T15:52:52.953Z,24.20
2017-09-16T15:55:21.126Z,24.30
2017-09-16T15:57:49.321Z,24.20
2017-09-16T16:00:16.792Z,24.10
2017-09-16T16:02:44.210Z,23.20
2017-09-16T16:05:12.383Z,23.10
2017-09-16T16:07:40.595Z,22.70
2017-09-16T16:10:08.003Z,22.70
2017-09-16T16:12:36.186Z,23.20
2017-09-16T16:15:04.368Z,23.80
2017-09-16T16:17:31.795Z,23.70
2017-09-16T16:19:59.300Z,24.10
2017-09-16T16:22:26.721Z,23.80
2017-09-16T16:24:54.894Z,22.20
2017-09-16T16:27:23.086Z,21.10
2017-09-16T16:29:50.546Z,21.00
2017-09-16T16:32:18.715Z,20.00
2017-09-16T16:34:46.131Z,20.00
2017-09-16T16:37:14.324Z,18.70
2017-09-16T16:39:41.730Z,18.60
2017-09-16T16:42:09.142Z,18.60
2017-09-16T16:44:37.360Z,17.40
2017-09-16T16:47:04.772Z,17.40
2017-09-16T16:49:32.975Z,17.20
2017-09-16T16:52:00.405Z,17.20
2017-09-16T16:54:28.591Z,16.80
2017-09-16T16:56:56.008Z,16.80
2017-09-16T16:59:23.431Z,16.70
2017-09-16T17:01:50.852Z,16.70
2017-09-16T17:04:18.278Z,16.50
2017-09-16T17:06:45.808Z,16.20
2017-09-16T17:09:14.218Z,16.40
2017-09-16T17:11:41.635Z,16.20
2017-09-16T17:14:09.091Z,16.10
2017-09-16T17:16:36.594Z,16.00
2017-09-16T17:19:05.000Z,15.90
2017-09-16T17:21:33.230Z,15.80
2017-09-16T17:24:00.642Z,15.80
2017-09-16T17:26:28.083Z,15.80
2017-09-16T17:28:55.591Z,15.90
2017-09-16T17:31:23.156Z,15.80
2017-09-16T17:33:50.656Z,15.50
2017-09-16T17:36:18.879Z,15.50
2017-09-16T17:38:46.361Z,15.40
2017-09-16T17:41:13.869Z,15.60
2017-09-16T17:43:41.434Z,15.70
2017-09-16T17:46:09.632Z,15.50
2017-09-16T17:48:37.072Z,15.50
2017-09-16T17:51:04.467Z,15.50
2017-09-16T17:53:32.691Z,15.40
2017-09-16T17:56:00.161Z,15.40
2017-09-16T17:58:27.595Z,15.20
2017-09-16T18:00:55.065Z,15.00
2017-09-16T18:03:22.519Z,14.70
2017-09-16T18:05:49.973Z,14.50
2017-09-16T18:08:17.590Z,14.30
2017-09-16T18:10:45.788Z,14.10
2017-09-16T18:13:13.723Z,14.10
2017-09-16T18:15:41.907Z,14.00
2017-09-16T18:18:10.099Z,14.10
2017-09-16T18:20:37.516Z,14.10
2017-09-16T18:23:06.384Z,14.10
2017-09-16T18:25:33.811Z,14.00
2017-09-16T18:28:01.223Z,13.80
2017-09-16T18:30:28.639Z,13.80
2017-09-16T18:32:56.078Z,13.70
2017-09-16T18:35:23.540Z,13.70
2017-09-16T18:37:50.976Z,13.70
2017-09-16T18:40:18.456Z,13.70
2017-09-16T18:42:45.848Z,13.60
2017-09-16T18:45:15.315Z,13.60
2017-09-16T18:47:42.771Z,13.60
2017-09-16T18:50:10.188Z,13.70
2017-09-16T18:52:38.382Z,13.90
2017-09-16T18:55:05.787Z,13.80
2017-09-16T18:57:33.206Z,13.80
2017-09-16T19:00:00.616Z,13.90
2017-09-16T19:02:28.842Z,13.90
2017-09-16T19:04:56.784Z,13.90
2017-09-16T19:07:24.206Z,13.90
2017-09-16T19:09:51.623Z,13.90
2017-09-16T19:12:19.043Z,13.90
2017-09-16T19:14:47.232Z,14.00
2017-09-16T19:17:14.655Z,14.00
2017-09-16T19:19:42.844Z,13.80
2017-09-16T19:22:11.027Z,13.70
2017-09-16T19:24:38.445Z,13.70
2017-09-16T19:27:06.628Z,13.60
2017-09-16T19:29:35.555Z,13.50
2017-09-16T19:32:03.048Z,13.50
2017-09-16T19:34:30.473Z,13.40
2017-09-16T19:36:57.892Z,13.30
2017-09-16T19:39:26.081Z,13.20
2017-09-16T19:41:54.288Z,13.20
2017-09-16T19:44:21.744Z,13.20
2017-09-16T19:46:49.163Z,13.20
2017-09-16T19:49:17.347Z,13.10
2017-09-16T19:51:45.529Z,13.00
2017-09-16T19:54:13.007Z,13.00
2017-09-16T19:56:40.424Z,13.10
2017-09-16T19:59:09.371Z,13.10
2017-09-16T20:01:36.792Z,13.00
2017-09-16T20:04:04.262Z,13.10
2017-09-16T20:06:31.704Z,12.90
2017-09-16T20:08:59.945Z,12.90
2017-09-16T20:11:27.429Z,12.80
2017-09-16T20:13:54.894Z,12.90
2017-09-16T20:16:23.068Z,12.90
2017-09-16T20:18:50.614Z,12.90
2017-09-16T20:21:18.807Z,13.00
2017-09-16T20:23:47.116Z,13.10
2017-09-16T20:26:14.599Z,13.00
2017-09-16T20:28:42.827Z,13.00
2017-09-16T20:31:10.276Z,13.00
2017-09-16T20:33:37.753Z,13.00
2017-09-16T20:36:05.168Z,13.00
2017-09-16T20:38:32.675Z,12.90
2017-09-16T20:41:00.159Z,13.00
2017-09-16T20:43:28.201Z,12.80
2017-09-16T20:45:55.639Z,12.50
2017-09-16T20:48:23.161Z,12.40
2017-09-16T20:50:50.679Z,12.20
2017-09-16T20:53:18.111Z,12.30
2017-09-16T20:55:45.527Z,12.30
2017-09-16T20:58:13.716Z,12.50
2017-09-16T21:00:41.231Z,12.50
2017-09-16T21:03:08.686Z,12.60
2017-09-16T21:05:36.132Z,12.60
2017-09-16T21:08:03.601Z,12.50
2017-09-16T21:10:31.016Z,12.50
2017-09-16T21:12:58.483Z,12.40
2017-09-16T21:15:25.950Z,12.50
2017-09-16T21:17:53.388Z,12.40
2017-09-16T21:20:20.815Z,12.10
2017-09-16T21:22:49.428Z,12.20
2017-09-16T21:25:16.885Z,12.20
2017-09-16T21:27:44.396Z,12.10
2017-09-16T21:30:11.824Z,12.10
2017-09-16T21:32:39.260Z,12.20
2017-09-16T21:35:06.716Z,12.20
2017-09-16T21:37:34.132Z,12.30
2017-09-16T21:40:02.399Z,12.20
2017-09-16T21:42:30.599Z,12.20
2017-09-16T21:44:58.127Z,12.20
2017-09-16T21:47:26.350Z,12.20
2017-09-16T21:49:53.810Z,12.10
2017-09-16T21:52:21.252Z,12.10
2017-09-16T21:54:48.706Z,11.90
2017-09-16T21:57:16.890Z,11.90
2017-09-16T21:59:44.302Z,11.90
2017-09-16T22:02:12.523Z,11.90
2017-09-16T22:04:39.935Z,11.90
2017-09-16T22:07:08.154Z,11.60
2017-09-16T22:09:35.568Z,11.60
2017-09-16T22:12:03.992Z,11.50
2017-09-16T22:14:31.403Z,11.40
2017-09-16T22:16:59.591Z,11.40
2017-09-16T22:19:27.002Z,11.40
2017-09-16T22:21:54.429Z,11.30
2017-09-16T22:24:21.845Z,11.30
2017-09-16T22:26:50.027Z,11.40
2017-09-16T22:29:18.232Z,11.30
2017-09-16T22:31:45.689Z,11.30
2017-09-16T22:34:13.280Z,11.30
2017-09-16T22:36:42.862Z,11.10
2017-09-16T22:39:10.294Z,11.10
2017-09-16T22:41:37.772Z,11.10
2017-09-16T22:44:05.324Z,11.20
2017-09-16T22:46:32.747Z,11.20
2017-09-16T22:49:01.805Z,11.30
2017-09-16T22:51:29.234Z,11.20
2017-09-16T22:53:56.686Z,11.30
2017-09-16T22:56:24.676Z,11.40
2017-09-16T22:58:52.087Z,11.30
2017-09-16T23:01:20.286Z,11.10
2017-09-16T23:03:47.713Z,11.10
2017-09-16T23:06:15.883Z,11.20
2017-09-16T23:08:44.091Z,11.20
2017-09-16T23:11:11.554Z,11.20
2017-09-16T23:13:39.011Z,11.20
2017-09-16T23:16:06.487Z,11.10
2017-09-16T23:18:34.032Z,11.20
2017-09-16T23:21:01.459Z,11.10
2017-09-16T23:23:28.880Z,11.00
2017-09-16T23:25:57.808Z,10.90
2017-09-16T23:28:25.224Z,10.80
2017-09-16T23:30:52.679Z,10.90
2017-09-16T23:33:20.103Z,10.80
2017-09-16T23:35:47.548Z,10.80
2017-09-16T23:38:15.202Z,10.80
2017-09-16T23:40:42.615Z,10.80
2017-09-16T23:43:10.808Z,10.90
2017-09-16T23:45:38.996Z,10.80
2017-09-16T23:48:06.418Z,10.80
2017-09-16T23:50:34.186Z,10.80
2017-09-16T23:53:02.368Z,10.90
2017-09-16T23:55:30.575Z,10.70
2017-09-16T23:57:58.035Z,10.70
